Time;durP1;ratioP1;P1;durP2;ratioP2;P2;SDS_P1;SDS_P2;PMS_P1;PMS_P2;Temp;Humidity;BMP_temperature;BMP_pressure;BME280_temperature;BME280_humidity;BME280_pressure;Samples;Min_cycle;Max_cycle;Signal;HPM_P1;HPM_P2
2023/06/22 00:01:24;;;;;;;7.60;6.90;;;;;;;;;;5051727;28;21170;-66
2023/06/22 00:03:53;;;;;;;6.10;5.53;;;;;;;;;;5050939;28;20619;-67
2023/06/22 00:06:21;;;;;;;6.43;5.90;;;;;;;;;;5033728;28;21184;-68
2023/06/22 00:08:50;;;;;;;7.70;6.50;;;;;;;;;;5033031;28;20651;-68
2023/06/22 00:11:20;;;;;;;10.00;7.00;;;;;;;;;;5039277;28;20670;-68
2023/06/22 00:13:49;;;;;;;6.77;6.23;;;;;;;;;;5036623;28;20612;-68
2023/06/22 00:16:17;;;;;;;6.80;6.23;;;;;;;;;;5043233;28;20615;-68
2023/06/22 00:18:46;;;;;;;7.13;6.43;;;;;;;;;;5051033;28;20613;-68
2023/06/22 00:21:16;;;;;;;7.47;6.87;;;;;;;;;;5051920;28;21202;-67
2023/06/22 00:23:44;;;;;;;11.73;7.63;;;;;;;;;;5051170;28;20615;-67
2023/06/22 00:26:12;;;;;;;11.83;6.60;;;;;;;;;;5051212;28;20615;-68
2023/06/22 00:28:41;;;;;;;18.23;8.30;;;;;;;;;;5050722;28;20623;-68
2023/06/22 00:31:09;;;;;;;15.80;9.07;;;;;;;;;;5049379;28;20964;-68
2023/06/22 00:33:38;;;;;;;14.40;8.97;;;;;;;;;;5050153;28;21196;-65
2023/06/22 00:36:07;;;;;;;9.33;7.90;;;;;;;;;;5029416;28;20689;-67
2023/06/22 00:38:40;;;;;;;10.03;8.60;;;;;;;;;;5051110;28;20619;-67
2023/06/22 00:41:10;;;;;;;11.20;8.50;;;;;;;;;;5051656;28;20613;-67
2023/06/22 00:43:38;;;;;;;9.43;8.30;;;;;;;;;;5032634;28;20627;-67
2023/06/22 00:46:07;;;;;;;10.00;8.13;;;;;;;;;;5050102;28;20630;-67
2023/06/22 00:48:36;;;;;;;20.57;11.10;;;;;;;;;;5050149;28;20627;-66
2023/06/22 00:51:05;;;;;;;11.00;8.00;;;;;;;;;;5033169;28;20983;-67
2023/06/22 00:53:35;;;;;;;11.40;8.60;;;;;;;;;;5050763;28;20627;-67
2023/06/22 00:56:05;;;;;;;15.57;10.90;;;;;;;;;;5050668;28;20645;-67
2023/06/22 00:58:35;;;;;;;12.67;9.57;;;;;;;;;;5033325;28;20626;-67
2023/06/22 01:01:03;;;;;;;10.97;9.83;;;;;;;;;;5052162;28;20624;-62
2023/06/22 01:03:31;;;;;;;14.00;10.00;;;;;;;;;;5053726;28;20620;-62
2023/06/22 01:06:06;;;;;;;13.37;9.77;;;;;;;;;;5053816;28;20629;-62
2023/06/22 01:08:41;;;;;;;12.90;9.90;;;;;;;;;;5037926;28;20651;-62
2023/06/22 01:11:14;;;;;;;13.17;9.97;;;;;;;;;;5051374;28;20668;-62
2023/06/22 01:13:46;;;;;;;15.27;10.30;;;;;;;;;;5055344;28;20686;-62
2023/06/22 01:16:18;;;;;;;17.90;9.87;;;;;;;;;;5055102;28;20607;-62
2023/06/22 01:18:48;;;;;;;11.37;10.17;;;;;;;;;;5055126;28;20595;-61
2023/06/22 01:21:18;;;;;;;11.10;9.93;;;;;;;;;;5057820;28;20695;-62
2023/06/22 01:23:53;;;;;;;12.23;9.07;;;;;;;;;;5061856;28;20637;-62
2023/06/22 01:26:27;;;;;;;11.77;9.40;;;;;;;;;;5062626;28;20610;-62
2023/06/22 01:28:59;;;;;;;9.20;8.37;;;;;;;;;;5063678;28;20693;-62
2023/06/22 01:31:30;;;;;;;9.83;8.90;;;;;;;;;;5062436;28;20757;-62
2023/06/22 01:34:00;;;;;;;11.10;9.57;;;;;;;;;;5062895;28;20682;-63
2023/06/22 01:36:28;;;;;;;9.90;8.90;;;;;;;;;;5062939;28;20717;-62
2023/06/22 01:38:58;;;;;;;8.90;8.13;;;;;;;;;;5062233;28;20797;-62
2023/06/22 01:41:27;;;;;;;10.00;9.10;;;;;;;;;;5061525;28;20701;-62
2023/06/22 01:43:56;;;;;;;10.57;9.47;;;;;;;;;;5044767;28;21260;-61
2023/06/22 01:46:25;;;;;;;13.73;9.20;;;;;;;;;;5041766;28;20615;-62
2023/06/22 01:48:54;;;;;;;9.80;8.90;;;;;;;;;;5043100;28;20706;-62
2023/06/22 01:51:24;;;;;;;9.80;8.80;;;;;;;;;;5058848;28;20657;-63
2023/06/22 01:53:52;;;;;;;12.67;9.67;;;;;;;;;;5062762;28;20679;-62
2023/06/22 01:56:21;;;;;;;9.60;8.63;;;;;;;;;;5044010;28;20710;-63
2023/06/22 01:58:51;;;;;;;10.60;9.60;;;;;;;;;;5062414;28;20717;-62
2023/06/22 02:01:28;;;;;;;10.73;9.70;;;;;;;;;;5061457;28;20610;-63
2023/06/22 02:04:02;;;;;;;11.07;10.00;;;;;;;;;;5040453;28;20566;-62
2023/06/22 02:06:34;;;;;;;18.70;10.10;;;;;;;;;;5041010;28;20652;-63
2023/06/22 02:09:04;;;;;;;11.80;10.77;;;;;;;;;;5023869;28;20662;-62
2023/06/22 02:11:34;;;;;;;12.47;8.97;;;;;;;;;;5046573;28;20671;-63
2023/06/22 02:14:02;;;;;;;11.33;9.90;;;;;;;;;;5040904;28;21244;-62
2023/06/22 02:16:32;;;;;;;11.23;9.70;;;;;;;;;;5041475;28;20706;-62
2023/06/22 02:19:03;;;;;;;9.50;8.60;;;;;;;;;;5044556;28;20607;-63
2023/06/22 02:21:32;;;;;;;11.90;8.50;;;;;;;;;;5061720;28;20622;-63
2023/06/22 02:24:00;;;;;;;10.40;9.17;;;;;;;;;;5061115;28;21267;-63
2023/06/22 02:26:31;;;;;;;9.83;8.83;;;;;;;;;;5060753;28;20665;-62
2023/06/22 02:28:59;;;;;;;9.97;9.00;;;;;;;;;;5059822;28;20626;-62
2023/06/22 02:31:30;;;;;;;9.67;8.73;;;;;;;;;;5060419;28;20990;-65
2023/06/22 02:33:58;;;;;;;11.00;10.00;;;;;;;;;;5056064;28;20611;-62
2023/06/22 02:36:30;;;;;;;10.10;9.20;;;;;;;;;;5056094;28;20653;-63
2023/06/22 02:39:00;;;;;;;10.70;9.67;;;;;;;;;;5037993;28;20607;-62
2023/06/22 02:41:29;;;;;;;11.30;10.07;;;;;;;;;;5056817;28;20613;-62
2023/06/22 02:43:58;;;;;;;10.80;9.80;;;;;;;;;;5056392;28;20635;-63
2023/06/22 02:46:27;;;;;;;11.83;10.47;;;;;;;;;;5057235;28;20607;-63
2023/06/22 02:48:56;;;;;;;10.77;9.73;;;;;;;;;;5038974;28;20622;-63
2023/06/22 02:51:24;;;;;;;11.20;10.17;;;;;;;;;;5039379;28;21082;-63
2023/06/22 02:53:57;;;;;;;10.63;9.63;;;;;;;;;;5038685;28;20998;-63
2023/06/22 02:56:26;;;;;;;13.07;10.60;;;;;;;;;;5021372;28;21283;-64
2023/06/22 02:59:01;;;;;;;11.10;10.10;;;;;;;;;;5037768;28;20610;-63
2023/06/22 03:01:37;;;;;;;12.03;10.83;;;;;;;;;;5033137;28;20666;-63
2023/06/22 03:04:06;;;;;;;13.00;11.53;;;;;;;;;;5027968;28;20620;-62
2023/06/22 03:06:34;;;;;;;13.33;11.13;;;;;;;;;;5055986;28;21057;-63
2023/06/22 03:09:04;;;;;;;12.90;11.43;;;;;;;;;;5037813;28;20942;-63
2023/06/22 03:11:34;;;;;;;12.13;10.67;;;;;;;;;;5038675;28;20729;-62
2023/06/22 03:14:03;;;;;;;14.37;11.80;;;;;;;;;;5056911;28;20698;-63
2023/06/22 03:16:32;;;;;;;14.57;11.43;;;;;;;;;;5038745;28;20627;-62
2023/06/22 03:19:01;;;;;;;13.93;12.50;;;;;;;;;;5038118;28;20609;-62
2023/06/22 03:21:29;;;;;;;13.10;11.43;;;;;;;;;;5038646;28;20721;-62
2023/06/22 03:23:57;;;;;;;15.10;12.40;;;;;;;;;;5055933;28;20623;-62
2023/06/22 03:26:27;;;;;;;15.33;12.03;;;;;;;;;;5038747;28;20629;-63
2023/06/22 03:28:55;;;;;;;14.17;11.73;;;;;;;;;;5056184;28;20738;-62
2023/06/22 03:31:23;;;;;;;13.67;12.27;;;;;;;;;;5055768;28;20651;-62
2023/06/22 03:33:52;;;;;;;12.73;11.53;;;;;;;;;;5030669;28;20628;-62
2023/06/22 03:36:20;;;;;;;18.53;12.20;;;;;;;;;;5031931;28;20699;-63
2023/06/22 03:38:49;;;;;;;13.67;12.17;;;;;;;;;;5037729;28;20634;-62
2023/06/22 03:41:17;;;;;;;15.07;12.53;;;;;;;;;;5056035;28;20690;-62
2023/06/22 03:43:47;;;;;;;13.97;12.40;;;;;;;;;;5037569;28;20610;-63
2023/06/22 03:46:17;;;;;;;16.30;11.80;;;;;;;;;;5055474;28;20965;-62
2023/06/22 03:48:45;;;;;;;15.43;11.90;;;;;;;;;;5037118;28;20619;-63
2023/06/22 03:51:13;;;;;;;15.40;11.70;;;;;;;;;;5044764;28;20664;-63
2023/06/22 03:53:42;;;;;;;13.60;12.30;;;;;;;;;;5036830;28;21213;-63
2023/06/22 03:56:10;;;;;;;14.00;12.03;;;;;;;;;;5036296;28;20803;-63
2023/06/22 03:58:42;;;;;;;15.33;13.80;;;;;;;;;;5036642;28;20611;-63
2023/06/22 04:01:12;;;;;;;17.90;14.07;;;;;;;;;;5035918;28;20659;-63
2023/06/22 04:03:40;;;;;;;16.00;12.50;;;;;;;;;;5031585;28;20623;-62
2023/06/22 04:06:08;;;;;;;17.70;15.33;;;;;;;;;;5055832;28;20622;-63
2023/06/22 04:08:36;;;;;;;20.93;14.07;;;;;;;;;;5055871;28;20622;-62
2023/06/22 04:11:05;;;;;;;16.90;15.20;;;;;;;;;;5055543;28;20673;-63
2023/06/22 04:13:33;;;;;;;21.73;15.17;;;;;;;;;;5036548;28;20640;-62
2023/06/22 04:16:02;;;;;;;17.73;14.40;;;;;;;;;;5035504;28;20620;-62
2023/06/22 04:18:31;;;;;;;21.97;16.37;;;;;;;;;;5051416;28;20710;-62
2023/06/22 04:20:59;;;;;;;25.93;15.67;;;;;;;;;;5056107;28;20630;-63
2023/06/22 04:23:28;;;;;;;19.20;14.70;;;;;;;;;;5056449;28;20634;-63
2023/06/22 04:25:57;;;;;;;24.50;16.67;;;;;;;;;;5055387;28;20631;-65
2023/06/22 04:28:25;;;;;;;18.00;16.07;;;;;;;;;;5054965;28;20718;-62
2023/06/22 04:30:58;;;;;;;18.10;16.10;;;;;;;;;;5055349;28;20662;-62
2023/06/22 04:33:26;;;;;;;22.73;16.43;;;;;;;;;;5054900;28;20998;-62
2023/06/22 04:35:56;;;;;;;30.00;16.87;;;;;;;;;;5055146;28;20711;-63
2023/06/22 04:38:25;;;;;;;20.80;15.37;;;;;;;;;;5053749;28;20956;-62
2023/06/22 04:40:54;;;;;;;21.67;17.03;;;;;;;;;;5055934;28;20742;-63
2023/06/22 04:43:22;;;;;;;18.10;16.20;;;;;;;;;;5049764;28;21078;-62
2023/06/22 04:45:52;;;;;;;21.47;16.93;;;;;;;;;;5054606;28;20627;-61
2023/06/22 04:48:20;;;;;;;24.03;16.60;;;;;;;;;;5053654;28;20615;-62
2023/06/22 04:50:48;;;;;;;21.07;15.70;;;;;;;;;;5053352;28;21236;-62
2023/06/22 04:53:18;;;;;;;17.10;15.17;;;;;;;;;;5034708;28;20623;-62
2023/06/22 04:55:49;;;;;;;28.80;15.80;;;;;;;;;;5053698;28;21039;-62
2023/06/22 04:58:19;;;;;;;18.73;15.43;;;;;;;;;;5035198;28;20618;-63
2023/06/22 05:00:47;;;;;;;22.93;15.60;;;;;;;;;;5053615;28;20604;-63
2023/06/22 05:03:18;;;;;;;19.30;15.43;;;;;;;;;;5053467;28;21019;-63
2023/06/22 05:05:46;;;;;;;19.00;15.27;;;;;;;;;;5035468;28;20610;-64
2023/06/22 05:08:15;;;;;;;27.20;17.37;;;;;;;;;;5055145;28;20708;-64
2023/06/22 05:10:44;;;;;;;22.30;15.77;;;;;;;;;;5051832;28;20661;-63
2023/06/22 05:13:13;;;;;;;18.87;15.40;;;;;;;;;;5038922;28;20632;-63
2023/06/22 05:15:41;;;;;;;19.00;16.93;;;;;;;;;;5053244;28;21025;-61
2023/06/22 05:18:11;;;;;;;16.87;14.40;;;;;;;;;;5035748;28;20694;-62
2023/06/22 05:20:39;;;;;;;25.53;15.10;;;;;;;;;;5051614;28;21256;-61
2023/06/22 05:23:08;;;;;;;25.27;13.97;;;;;;;;;;5053629;28;20700;-63
2023/06/22 05:25:36;;;;;;;16.43;13.70;;;;;;;;;;5053872;28;20631;-62
2023/06/22 05:28:11;;;;;;;18.37;12.90;;;;;;;;;;5051280;28;20626;-63
2023/06/22 05:30:39;;;;;;;14.63;12.17;;;;;;;;;;5040217;28;20599;-63
2023/06/22 05:33:08;;;;;;;13.10;11.60;;;;;;;;;;5036942;28;20659;-63
2023/06/22 05:35:36;;;;;;;12.90;11.60;;;;;;;;;;5035011;28;20616;-63
2023/06/22 05:38:04;;;;;;;10.57;9.57;;;;;;;;;;5048382;28;20727;-63
2023/06/22 05:40:32;;;;;;;11.17;10.10;;;;;;;;;;5050147;28;20705;-62
2023/06/22 05:43:01;;;;;;;11.70;10.53;;;;;;;;;;5053210;28;21273;-62
2023/06/22 05:45:31;;;;;;;10.80;9.70;;;;;;;;;;5036185;28;20611;-62
2023/06/22 05:47:59;;;;;;;15.53;9.93;;;;;;;;;;5054123;28;20718;-63
2023/06/22 05:50:27;;;;;;;14.73;9.80;;;;;;;;;;5056307;28;20710;-66
2023/06/22 05:52:55;;;;;;;11.77;9.07;;;;;;;;;;5048737;28;20676;-64
2023/06/22 05:55:24;;;;;;;11.40;9.47;;;;;;;;;;5060883;28;20647;-66
2023/06/22 05:57:52;;;;;;;12.33;9.00;;;;;;;;;;5074969;28;20635;-67
2023/06/22 06:00:21;;;;;;;10.40;9.33;;;;;;;;;;5058218;28;20615;-66
2023/06/22 06:02:51;;;;;;;9.73;8.93;;;;;;;;;;5067373;28;20652;-65
2023/06/22 06:05:19;;;;;;;9.17;8.20;;;;;;;;;;5019164;28;20632;-65
2023/06/22 06:07:48;;;;;;;9.60;8.70;;;;;;;;;;5056065;28;20647;-66
2023/06/22 06:10:16;;;;;;;8.93;8.00;;;;;;;;;;5040579;28;20659;-65
2023/06/22 06:12:44;;;;;;;10.37;9.17;;;;;;;;;;5060172;28;20689;-66
2023/06/22 06:15:13;;;;;;;10.43;9.33;;;;;;;;;;5071974;28;20634;-65
2023/06/22 06:17:47;;;;;;;8.57;7.70;;;;;;;;;;5077878;28;20646;-66
2023/06/22 06:20:16;;;;;;;14.00;8.87;;;;;;;;;;5075690;28;20607;-67
2023/06/22 06:22:44;;;;;;;9.13;7.40;;;;;;;;;;5071469;28;20623;-67
2023/06/22 06:25:15;;;;;;;9.33;8.03;;;;;;;;;;5077220;28;20647;-66
2023/06/22 06:27:44;;;;;;;9.00;8.30;;;;;;;;;;5077645;28;20649;-69
2023/06/22 06:30:13;;;;;;;50.70;10.10;;;;;;;;;;5078093;28;20623;-65
2023/06/22 06:32:41;;;;;;;9.63;8.63;;;;;;;;;;5059681;28;20654;-66
2023/06/22 06:35:10;;;;;;;10.30;8.97;;;;;;;;;;5077308;28;20631;-68
2023/06/22 06:37:40;;;;;;;10.13;8.80;;;;;;;;;;5074050;28;20648;-67
2023/06/22 06:40:10;;;;;;;13.73;9.40;;;;;;;;;;5078516;28;20599;-66
2023/06/22 06:42:40;;;;;;;10.00;9.03;;;;;;;;;;5077201;28;20615;-67
2023/06/22 06:45:09;;;;;;;10.93;8.70;;;;;;;;;;5055890;28;20646;-66
2023/06/22 06:47:37;;;;;;;8.73;7.83;;;;;;;;;;5075183;28;20655;-67
2023/06/22 06:50:06;;;;;;;12.67;8.67;;;;;;;;;;5071498;28;20642;-66
2023/06/22 06:52:34;;;;;;;9.90;8.60;;;;;;;;;;5070810;28;20868;-66
2023/06/22 06:55:07;;;;;;;8.27;7.47;;;;;;;;;;5056556;28;20637;-64
2023/06/22 06:57:37;;;;;;;9.13;8.30;;;;;;;;;;5060053;28;20671;-66
2023/06/22 07:00:10;;;;;;;9.57;8.77;;;;;;;;;;5073040;28;20698;-65
2023/06/22 07:02:40;;;;;;;12.27;8.10;;;;;;;;;;5050651;28;20596;-66
2023/06/22 07:05:08;;;;;;;9.63;8.80;;;;;;;;;;5072813;28;20646;-67
2023/06/22 07:07:36;;;;;;;9.40;8.50;;;;;;;;;;5074260;28;20642;-65
2023/06/22 07:10:07;;;;;;;10.80;9.70;;;;;;;;;;5072008;28;20686;-68
2023/06/22 07:12:35;;;;;;;9.10;8.20;;;;;;;;;;5074838;28;20673;-65
2023/06/22 07:15:04;;;;;;;11.60;9.40;;;;;;;;;;5057603;28;20634;-66
2023/06/22 07:17:32;;;;;;;9.77;8.87;;;;;;;;;;5071690;28;20655;-65
2023/06/22 07:20:01;;;;;;;10.77;9.67;;;;;;;;;;5072693;28;20658;-66
2023/06/22 07:22:29;;;;;;;13.87;8.90;;;;;;;;;;5078175;28;20615;-66
2023/06/22 07:24:57;;;;;;;9.30;8.40;;;;;;;;;;5077956;28;20638;-66
2023/06/22 07:27:27;;;;;;;12.47;8.47;;;;;;;;;;5078098;28;20631;-67
2023/06/22 07:29:55;;;;;;;9.50;8.50;;;;;;;;;;5075669;28;20627;-66
2023/06/22 07:32:24;;;;;;;9.83;8.50;;;;;;;;;;5074691;28;20687;-66
2023/06/22 07:34:52;;;;;;;11.43;8.70;;;;;;;;;;5076178;28;21010;-65
2023/06/22 07:37:20;;;;;;;10.70;8.40;;;;;;;;;;5067896;28;20638;-67
2023/06/22 07:39:50;;;;;;;9.20;8.47;;;;;;;;;;5076148;28;20635;-67
2023/06/22 07:42:18;;;;;;;8.23;7.53;;;;;;;;;;5069096;28;20639;-66
2023/06/22 07:44:48;;;;;;;9.20;8.10;;;;;;;;;;5077416;28;20611;-67
2023/06/22 07:47:17;;;;;;;9.10;8.30;;;;;;;;;;5075256;28;20651;-66
2023/06/22 07:49:46;;;;;;;9.77;8.87;;;;;;;;;;5075857;28;20627;-67
2023/06/22 07:52:14;;;;;;;11.27;9.07;;;;;;;;;;5074972;28;20655;-66
2023/06/22 07:54:42;;;;;;;14.33;8.17;;;;;;;;;;5077618;28;20630;-65
2023/06/22 07:57:10;;;;;;;11.80;9.30;;;;;;;;;;5076617;28;20658;-67
2023/06/22 07:59:38;;;;;;;8.73;7.83;;;;;;;;;;5076548;28;20630;-67
2023/06/22 08:02:09;;;;;;;8.80;8.10;;;;;;;;;;5075130;28;20635;-66
2023/06/22 08:04:37;;;;;;;9.10;8.07;;;;;;;;;;5070600;28;20628;-66
2023/06/22 08:07:05;;;;;;;9.73;8.73;;;;;;;;;;5075583;28;20702;-65
2023/06/22 08:09:34;;;;;;;9.30;8.07;;;;;;;;;;5076319;28;20686;-66
2023/06/22 08:12:02;;;;;;;8.93;7.97;;;;;;;;;;5071476;28;20640;-67
2023/06/22 08:14:31;;;;;;;8.77;7.97;;;;;;;;;;5071596;28;20683;-68
2023/06/22 08:16:59;;;;;;;8.43;7.73;;;;;;;;;;5077032;28;20615;-67
2023/06/22 08:19:29;;;;;;;8.80;7.67;;;;;;;;;;5072364;28;20630;-65
2023/06/22 08:21:58;;;;;;;8.53;7.83;;;;;;;;;;5075713;28;20647;-65
2023/06/22 08:24:30;;;;;;;10.03;7.93;;;;;;;;;;5072342;28;20623;-66
2023/06/22 08:26:58;;;;;;;8.50;7.70;;;;;;;;;;5073213;28;20659;-66
2023/06/22 08:29:26;;;;;;;14.20;9.13;;;;;;;;;;5068107;28;20651;-65
2023/06/22 08:31:55;;;;;;;10.00;8.17;;;;;;;;;;5069411;28;20643;-65
2023/06/22 08:34:25;;;;;;;9.00;7.43;;;;;;;;;;5063587;28;20714;-65
2023/06/22 08:36:55;;;;;;;9.17;8.40;;;;;;;;;;5066098;28;20647;-64
2023/06/22 08:39:23;;;;;;;8.10;7.27;;;;;;;;;;5063052;28;21173;-64
2023/06/22 08:41:51;;;;;;;8.40;7.70;;;;;;;;;;5073395;28;20647;-64
2023/06/22 08:44:20;;;;;;;9.67;7.73;;;;;;;;;;5075579;28;20631;-65
2023/06/22 08:46:48;;;;;;;9.77;7.97;;;;;;;;;;5070806;28;20603;-64
2023/06/22 08:49:16;;;;;;;8.43;7.60;;;;;;;;;;5076442;28;20611;-66
2023/06/22 08:51:47;;;;;;;9.23;8.00;;;;;;;;;;5072543;28;20632;-65
2023/06/22 08:54:17;;;;;;;11.93;8.80;;;;;;;;;;5056391;28;20663;-66
2023/06/22 08:56:45;;;;;;;8.10;7.10;;;;;;;;;;5058764;28;20673;-66
2023/06/22 08:59:13;;;;;;;8.10;7.20;;;;;;;;;;5072953;28;20718;-66
2023/06/22 09:01:45;;;;;;;8.77;8.00;;;;;;;;;;5056317;28;20703;-67
2023/06/22 09:04:13;;;;;;;10.17;8.43;;;;;;;;;;5054607;28;20710;-66
2023/06/22 09:06:44;;;;;;;9.90;8.53;;;;;;;;;;5057560;28;21219;-65
2023/06/22 09:09:14;;;;;;;7.67;7.00;;;;;;;;;;5052931;28;20633;-67
2023/06/22 09:11:43;;;;;;;8.63;7.80;;;;;;;;;;5052886;28;20726;-67
2023/06/22 09:14:12;;;;;;;7.37;6.67;;;;;;;;;;5016096;28;21012;-65
2023/06/22 09:16:40;;;;;;;20.73;9.30;;;;;;;;;;5053393;28;20614;-65
2023/06/22 09:19:08;;;;;;;8.70;7.80;;;;;;;;;;5034495;28;20732;-66
2023/06/22 09:21:38;;;;;;;13.50;8.37;;;;;;;;;;5035140;28;20683;-66
2023/06/22 09:24:06;;;;;;;9.00;8.10;;;;;;;;;;5049474;28;20615;-66
2023/06/22 09:26:34;;;;;;;8.23;7.63;;;;;;;;;;5052475;28;20631;-66
2023/06/22 09:29:06;;;;;;;8.93;8.03;;;;;;;;;;5057129;28;20702;-66
2023/06/22 09:31:34;;;;;;;8.97;8.17;;;;;;;;;;5053102;28;20705;-65
2023/06/22 09:34:02;;;;;;;9.50;8.47;;;;;;;;;;5051657;28;20669;-66
2023/06/22 09:36:31;;;;;;;9.33;7.83;;;;;;;;;;5034489;28;20614;-65
2023/06/22 09:39:01;;;;;;;9.33;8.43;;;;;;;;;;5053545;28;20615;-65
2023/06/22 09:41:29;;;;;;;8.50;7.70;;;;;;;;;;5031831;28;20582;-65
2023/06/22 09:43:57;;;;;;;9.10;7.60;;;;;;;;;;5036606;28;20699;-64
2023/06/22 09:46:27;;;;;;;10.37;7.90;;;;;;;;;;5056433;28;20619;-65
2023/06/22 09:48:56;;;;;;;12.03;9.90;;;;;;;;;;5055993;28;20626;-65
2023/06/22 09:51:24;;;;;;;14.90;8.80;;;;;;;;;;5053797;28;20645;-63
2023/06/22 09:53:53;;;;;;;11.57;8.77;;;;;;;;;;5054250;28;21048;-64
2023/06/22 09:56:22;;;;;;;10.73;8.70;;;;;;;;;;5046729;28;20685;-62
2023/06/22 09:58:52;;;;;;;12.10;8.60;;;;;;;;;;5053504;28;20641;-66
2023/06/22 10:01:21;;;;;;;10.60;8.63;;;;;;;;;;5044190;28;20611;-63
2023/06/22 10:03:51;;;;;;;9.47;8.43;;;;;;;;;;5052898;28;20625;-63
2023/06/22 10:06:19;;;;;;;9.47;8.67;;;;;;;;;;5048451;28;21226;-63
2023/06/22 10:08:48;;;;;;;9.77;8.73;;;;;;;;;;5053320;28;21160;-64
2023/06/22 10:11:16;;;;;;;13.00;7.97;;;;;;;;;;5053747;28;20745;-66
2023/06/22 10:13:44;;;;;;;9.83;8.43;;;;;;;;;;5052273;28;20662;-66
2023/06/22 10:16:12;;;;;;;8.83;8.00;;;;;;;;;;5047984;28;20996;-65
2023/06/22 10:18:41;;;;;;;9.83;8.77;;;;;;;;;;5055437;28;20603;-65
2023/06/22 10:21:10;;;;;;;25.00;10.60;;;;;;;;;;5054511;28;20615;-65
2023/06/22 10:23:38;;;;;;;12.30;8.63;;;;;;;;;;5054661;28;20660;-65
2023/06/22 10:26:07;;;;;;;9.77;8.77;;;;;;;;;;5050849;28;20629;-65
2023/06/22 10:28:35;;;;;;;12.33;9.20;;;;;;;;;;5037497;28;21019;-65
2023/06/22 10:31:03;;;;;;;10.97;8.63;;;;;;;;;;5054570;28;20631;-65
2023/06/22 10:33:31;;;;;;;20.07;9.27;;;;;;;;;;5054612;28;20615;-65
2023/06/22 10:35:59;;;;;;;9.37;8.50;;;;;;;;;;5036785;28;20633;-65
2023/06/22 10:38:29;;;;;;;10.10;9.13;;;;;;;;;;5055000;28;20941;-65
2023/06/22 10:40:57;;;;;;;12.40;8.50;;;;;;;;;;5054773;28;20652;-65
2023/06/22 10:43:25;;;;;;;12.80;8.80;;;;;;;;;;5037006;28;20619;-65
2023/06/22 10:45:54;;;;;;;10.00;9.20;;;;;;;;;;5052730;28;20629;-65
2023/06/22 10:48:22;;;;;;;11.57;10.33;;;;;;;;;;5052310;28;21289;-65
2023/06/22 10:50:50;;;;;;;12.03;8.93;;;;;;;;;;5054541;28;21086;-62
2023/06/22 10:53:18;;;;;;;10.60;9.50;;;;;;;;;;5050448;28;20999;-65
2023/06/22 10:55:48;;;;;;;12.80;9.37;;;;;;;;;;5052546;28;20654;-65
2023/06/22 10:58:16;;;;;;;9.80;8.90;;;;;;;;;;5037207;28;20688;-65
2023/06/22 11:00:44;;;;;;;9.53;8.53;;;;;;;;;;5053420;28;20983;-66
2023/06/22 11:03:14;;;;;;;13.03;9.80;;;;;;;;;;5053650;28;20715;-65
2023/06/22 11:05:42;;;;;;;10.47;9.67;;;;;;;;;;5053524;28;20615;-65
2023/06/22 11:08:10;;;;;;;10.47;9.57;;;;;;;;;;5053522;28;20639;-64
2023/06/22 11:10:38;;;;;;;10.33;9.53;;;;;;;;;;5052636;28;21043;-64
2023/06/22 11:13:11;;;;;;;9.10;8.03;;;;;;;;;;5047188;28;20627;-65
2023/06/22 11:15:40;;;;;;;11.43;10.30;;;;;;;;;;5052185;28;20643;-64
2023/06/22 11:18:08;;;;;;;12.57;9.40;;;;;;;;;;5052481;28;20629;-66
2023/06/22 11:20:38;;;;;;;8.53;7.93;;;;;;;;;;5051445;28;20631;-66
2023/06/22 11:23:11;;;;;;;11.17;10.07;;;;;;;;;;5053409;28;20634;-64
2023/06/22 11:25:42;;;;;;;11.60;9.10;;;;;;;;;;5051181;28;20665;-64
2023/06/22 11:28:11;;;;;;;9.93;9.07;;;;;;;;;;5053684;28;20611;-65
2023/06/22 11:30:39;;;;;;;10.00;9.13;;;;;;;;;;5030910;28;20637;-65
2023/06/22 11:33:08;;;;;;;11.80;9.40;;;;;;;;;;5047769;28;20623;-65
2023/06/22 11:35:36;;;;;;;9.90;8.90;;;;;;;;;;5052468;28;20667;-64
2023/06/22 11:38:05;;;;;;;10.50;9.00;;;;;;;;;;5052530;28;20627;-64
2023/06/22 11:40:33;;;;;;;10.57;9.60;;;;;;;;;;5035987;28;20626;-64
2023/06/22 11:43:01;;;;;;;12.10;9.50;;;;;;;;;;5051022;28;21176;-65
2023/06/22 11:45:31;;;;;;;11.60;10.50;;;;;;;;;;5048759;28;20653;-64
2023/06/22 11:47:59;;;;;;;10.83;9.83;;;;;;;;;;5053567;28;20614;-65
2023/06/22 11:50:29;;;;;;;14.60;10.17;;;;;;;;;;5049309;28;21211;-65
2023/06/22 11:52:58;;;;;;;10.67;9.77;;;;;;;;;;5030269;28;20605;-65
2023/06/22 11:55:26;;;;;;;10.53;9.77;;;;;;;;;;5017952;28;20658;-63
2023/06/22 11:57:55;;;;;;;10.97;10.10;;;;;;;;;;5050729;28;20721;-65
2023/06/22 12:00:24;;;;;;;10.97;10.07;;;;;;;;;;5051634;28;20631;-64
2023/06/22 12:02:53;;;;;;;12.00;10.90;;;;;;;;;;5033102;28;20641;-65
2023/06/22 12:05:22;;;;;;;12.00;10.60;;;;;;;;;;5051031;28;20988;-65
2023/06/22 12:07:50;;;;;;;12.13;10.83;;;;;;;;;;5053191;28;20611;-65
2023/06/22 12:10:19;;;;;;;11.00;9.90;;;;;;;;;;5050886;28;20654;-65
2023/06/22 12:12:47;;;;;;;16.47;10.33;;;;;;;;;;5051790;28;20634;-65
2023/06/22 12:15:15;;;;;;;11.50;10.40;;;;;;;;;;5048122;28;20667;-65
2023/06/22 12:17:44;;;;;;;11.83;10.67;;;;;;;;;;5056892;28;20629;-65
2023/06/22 12:20:13;;;;;;;12.03;10.73;;;;;;;;;;5049514;28;20994;-65
2023/06/22 12:22:42;;;;;;;11.37;10.17;;;;;;;;;;5055974;28;20638;-64
2023/06/22 12:25:10;;;;;;;11.70;10.70;;;;;;;;;;5061374;28;21248;-65
2023/06/22 12:27:39;;;;;;;10.77;9.87;;;;;;;;;;5052030;28;20623;-65
2023/06/22 12:30:08;;;;;;;12.93;10.30;;;;;;;;;;5051600;28;20696;-65
2023/06/22 12:32:36;;;;;;;13.23;11.00;;;;;;;;;;5051831;28;20988;-63
2023/06/22 12:35:04;;;;;;;13.33;10.50;;;;;;;;;;5050308;28;20681;-64
2023/06/22 12:37:34;;;;;;;13.80;12.33;;;;;;;;;;5051404;28;20624;-65
2023/06/22 12:40:03;;;;;;;11.73;10.60;;;;;;;;;;5050816;28;20627;-65
2023/06/22 12:42:31;;;;;;;12.03;11.10;;;;;;;;;;5035862;28;21068;-65
2023/06/22 12:45:00;;;;;;;11.97;11.00;;;;;;;;;;5029369;28;20624;-65
2023/06/22 12:47:28;;;;;;;19.93;12.60;;;;;;;;;;5054728;28;20623;-65
2023/06/22 12:49:56;;;;;;;13.10;11.80;;;;;;;;;;5056728;28;20639;-65
2023/06/22 12:52:25;;;;;;;12.27;11.07;;;;;;;;;;5049405;28;20631;-65
2023/06/22 12:54:55;;;;;;;13.07;11.70;;;;;;;;;;5024448;28;20659;-65
2023/06/22 12:57:23;;;;;;;15.23;11.50;;;;;;;;;;5033375;28;20651;-65
2023/06/22 12:59:51;;;;;;;12.80;11.33;;;;;;;;;;5052377;28;20622;-65
2023/06/22 13:02:19;;;;;;;12.17;11.10;;;;;;;;;;5049100;28;20619;-65
2023/06/22 13:04:49;;;;;;;12.80;11.50;;;;;;;;;;5022010;28;20638;-63
2023/06/22 13:07:18;;;;;;;11.70;10.70;;;;;;;;;;5050684;28;20978;-63
2023/06/22 13:09:46;;;;;;;12.60;11.60;;;;;;;;;;5033716;28;20655;-63
2023/06/22 13:12:16;;;;;;;15.73;11.20;;;;;;;;;;5044952;28;20644;-64
2023/06/22 13:14:45;;;;;;;12.50;11.50;;;;;;;;;;5038879;28;20637;-64
2023/06/22 13:17:13;;;;;;;12.30;10.73;;;;;;;;;;5050949;28;20982;-63
2023/06/22 13:19:42;;;;;;;12.30;11.00;;;;;;;;;;5038445;28;20619;-63
2023/06/22 13:22:27;;;;;;;12.67;11.43;;;;;;;;;;5033859;28;20623;-64
2023/06/22 13:24:55;;;;;;;11.87;10.70;;;;;;;;;;5051904;28;20919;-63
2023/06/22 13:27:25;;;;;;;13.57;11.40;;;;;;;;;;5051086;28;20615;-64
2023/06/22 13:29:54;;;;;;;20.83;11.27;;;;;;;;;;5049439;28;20633;-63
2023/06/22 13:32:22;;;;;;;13.00;11.80;;;;;;;;;;5033090;28;20623;-63
2023/06/22 13:34:50;;;;;;;12.27;10.97;;;;;;;;;;5043451;28;20687;-64
2023/06/22 13:37:19;;;;;;;11.53;10.43;;;;;;;;;;5043675;28;20654;-63
2023/06/22 13:39:47;;;;;;;12.00;10.90;;;;;;;;;;5050518;28;21121;-63
2023/06/22 13:42:15;;;;;;;13.40;10.23;;;;;;;;;;5045932;28;20620;-64
2023/06/22 13:44:45;;;;;;;16.37;10.23;;;;;;;;;;5033248;28;20921;-63
2023/06/22 13:47:13;;;;;;;15.37;11.73;;;;;;;;;;5038982;28;20619;-64
2023/06/22 13:49:41;;;;;;;12.10;10.77;;;;;;;;;;5051211;28;20684;-64
2023/06/22 13:52:12;;;;;;;14.63;9.37;;;;;;;;;;5051555;28;20630;-64
2023/06/22 13:54:40;;;;;;;10.20;9.27;;;;;;;;;;5051084;28;20609;-63
2023/06/22 13:57:08;;;;;;;16.80;10.30;;;;;;;;;;5050837;28;20663;-63
2023/06/22 13:59:37;;;;;;;12.13;9.30;;;;;;;;;;5050555;28;20956;-64
2023/06/22 14:02:07;;;;;;;13.93;10.50;;;;;;;;;;5048321;28;20693;-64
2023/06/22 14:04:35;;;;;;;11.50;9.50;;;;;;;;;;5042460;28;20619;-64
2023/06/22 14:07:03;;;;;;;11.67;10.70;;;;;;;;;;5051098;28;20634;-64
2023/06/22 14:09:31;;;;;;;17.07;10.97;;;;;;;;;;5050451;28;20622;-63
2023/06/22 14:11:59;;;;;;;12.10;10.90;;;;;;;;;;5038599;28;20639;-63
2023/06/22 14:14:28;;;;;;;11.53;9.87;;;;;;;;;;5051706;28;20689;-63
2023/06/22 14:16:56;;;;;;;17.80;10.20;;;;;;;;;;5051698;28;20665;-64
2023/06/22 14:19:25;;;;;;;12.37;8.50;;;;;;;;;;5051925;28;20627;-64
2023/06/22 14:21:54;;;;;;;16.53;8.40;;;;;;;;;;5051934;28;20623;-64
2023/06/22 14:24:22;;;;;;;17.93;9.73;;;;;;;;;;5044497;28;20631;-63
2023/06/22 14:26:50;;;;;;;12.03;7.90;;;;;;;;;;5047609;28;21169;-64
2023/06/22 14:29:18;;;;;;;15.53;9.17;;;;;;;;;;5054547;28;20617;-63
2023/06/22 14:31:47;;;;;;;13.57;8.70;;;;;;;;;;5054620;28;21172;-64
2023/06/22 14:34:15;;;;;;;16.93;9.00;;;;;;;;;;5055619;28;20622;-64
2023/06/22 14:36:45;;;;;;;10.80;9.67;;;;;;;;;;5037405;28;20646;-63
2023/06/22 14:43:20;;;;;;;21.50;9.70;;;;;;;;;;5045579;28;20562;-64